sensor_id;sensor_type;location;lat;lon;timestamp;P1;durP1;ratioP1;P2;durP2;ratioP2
55706;SDS011;41608;45.384;20.394;2022-09-09T00:09:19;14.52;;;9.95;;
55706;SDS011;41608;45.384;20.394;2022-09-09T00:12:04;15.60;;;8.52;;
55706;SDS011;41608;45.384;20.394;2022-09-09T00:17:00;10.05;;;7.93;;
55706;SDS011;41608;45.384;20.394;2022-09-09T00:19:32;9.55;;;8.45;;
55706;SDS011;41608;45.384;20.394;2022-09-09T00:22:18;11.25;;;9.40;;
55706;SDS011;41608;45.384;20.394;2022-09-09T00:29:45;14.18;;;9.05;;
55706;SDS011;41608;45.384;20.394;2022-09-09T00:32:14;15.32;;;9.85;;
55706;SDS011;41608;45.384;20.394;2022-09-09T00:34:48;12.40;;;9.48;;
55706;SDS011;41608;45.384;20.394;2022-09-09T00:37:15;12.02;;;9.00;;
55706;SDS011;41608;45.384;20.394;2022-09-09T00:39:42;16.42;;;10.63;;
55706;SDS011;41608;45.384;20.394;2022-09-09T00:44:38;13.10;;;10.98;;
55706;SDS011;41608;45.384;20.394;2022-09-09T00:47:19;18.90;;;9.77;;
55706;SDS011;41608;45.384;20.394;2022-09-09T00:57:40;15.55;;;11.88;;
55706;SDS011;41608;45.384;20.394;2022-09-09T01:00:17;16.77;;;10.20;;
55706;SDS011;41608;45.384;20.394;2022-09-09T01:02:50;12.50;;;9.38;;
55706;SDS011;41608;45.384;20.394;2022-09-09T01:05:20;11.82;;;9.82;;
55706;SDS011;41608;45.384;20.394;2022-09-09T01:07:50;12.38;;;10.90;;
55706;SDS011;41608;45.384;20.394;2022-09-09T01:10:31;16.00;;;11.73;;
55706;SDS011;41608;45.384;20.394;2022-09-09T01:13:00;18.42;;;11.25;;
55706;SDS011;41608;45.384;20.394;2022-09-09T01:15:29;17.10;;;11.10;;
55706;SDS011;41608;45.384;20.394;2022-09-09T01:18:06;17.00;;;11.40;;
55706;SDS011;41608;45.384;20.394;2022-09-09T01:20:39;15.20;;;11.02;;
55706;SDS011;41608;45.384;20.394;2022-09-09T01:23:22;14.15;;;10.95;;
55706;SDS011;41608;45.384;20.394;2022-09-09T01:28:30;15.80;;;11.02;;
55706;SDS011;41608;45.384;20.394;2022-09-09T01:30:59;16.05;;;10.85;;
55706;SDS011;41608;45.384;20.394;2022-09-09T01:33:25;19.35;;;10.57;;
55706;SDS011;41608;45.384;20.394;2022-09-09T01:38:25;13.10;;;10.68;;
55706;SDS011;41608;45.384;20.394;2022-09-09T01:40:51;14.57;;;11.25;;
55706;SDS011;41608;45.384;20.394;2022-09-09T01:43:20;16.92;;;10.77;;
55706;SDS011;41608;45.384;20.394;2022-09-09T01:45:50;17.27;;;11.43;;
55706;SDS011;41608;45.384;20.394;2022-09-09T01:48:17;16.20;;;11.73;;
55706;SDS011;41608;45.384;20.394;2022-09-09T01:50:43;21.10;;;11.80;;
55706;SDS011;41608;45.384;20.394;2022-09-09T01:53:19;16.73;;;12.07;;
55706;SDS011;41608;45.384;20.394;2022-09-09T01:56:35;15.57;;;11.45;;
55706;SDS011;41608;45.384;20.394;2022-09-09T02:04:38;17.27;;;12.30;;
55706;SDS011;41608;45.384;20.394;2022-09-09T02:07:06;19.10;;;12.15;;
55706;SDS011;41608;45.384;20.394;2022-09-09T02:09:34;18.42;;;12.45;;
55706;SDS011;41608;45.384;20.394;2022-09-09T02:12:05;18.83;;;11.85;;
55706;SDS011;41608;45.384;20.394;2022-09-09T02:14:34;18.23;;;12.93;;
55706;SDS011;41608;45.384;20.394;2022-09-09T02:17:03;19.50;;;12.05;;
55706;SDS011;41608;45.384;20.394;2022-09-09T02:19:35;19.10;;;13.07;;
55706;SDS011;41608;45.384;20.394;2022-09-09T02:22:02;15.55;;;12.65;;
55706;SDS011;41608;45.384;20.394;2022-09-09T02:24:29;21.00;;;13.15;;
55706;SDS011;41608;45.384;20.394;2022-09-09T02:26:58;17.75;;;12.60;;
55706;SDS011;41608;45.384;20.394;2022-09-09T02:29:28;20.95;;;13.55;;
55706;SDS011;41608;45.384;20.394;2022-09-09T02:31:56;19.48;;;12.05;;
55706;SDS011;41608;45.384;20.394;2022-09-09T02:34:24;18.25;;;12.38;;
55706;SDS011;41608;45.384;20.394;2022-09-09T02:36:52;23.05;;;12.80;;
55706;SDS011;41608;45.384;20.394;2022-09-09T02:39:19;16.92;;;12.45;;
55706;SDS011;41608;45.384;20.394;2022-09-09T02:41:45;16.35;;;12.25;;
55706;SDS011;41608;45.384;20.394;2022-09-09T02:44:13;17.77;;;12.52;;
55706;SDS011;41608;45.384;20.394;2022-09-09T02:52:02;16.02;;;13.70;;
55706;SDS011;41608;45.384;20.394;2022-09-09T02:54:40;20.55;;;13.82;;
55706;SDS011;41608;45.384;20.394;2022-09-09T02:59:39;20.45;;;13.07;;
55706;SDS011;41608;45.384;20.394;2022-09-09T03:02:06;21.10;;;12.80;;
55706;SDS011;41608;45.384;20.394;2022-09-09T03:04:37;17.65;;;13.73;;
55706;SDS011;41608;45.384;20.394;2022-09-09T03:07:03;17.92;;;13.98;;
55706;SDS011;41608;45.384;20.394;2022-09-09T03:09:29;17.67;;;12.57;;
55706;SDS011;41608;45.384;20.394;2022-09-09T03:11:56;20.50;;;13.52;;
55706;SDS011;41608;45.384;20.394;2022-09-09T03:14:23;16.35;;;13.68;;
55706;SDS011;41608;45.384;20.394;2022-09-09T03:16:52;16.65;;;13.32;;
55706;SDS011;41608;45.384;20.394;2022-09-09T03:19:18;18.10;;;12.82;;
55706;SDS011;41608;45.384;20.394;2022-09-09T03:21:45;20.27;;;14.60;;
55706;SDS011;41608;45.384;20.394;2022-09-09T03:24:11;19.17;;;13.25;;
55706;SDS011;41608;45.384;20.394;2022-09-09T03:26:37;16.05;;;13.07;;
55706;SDS011;41608;45.384;20.394;2022-09-09T03:29:06;15.98;;;13.38;;
55706;SDS011;41608;45.384;20.394;2022-09-09T03:31:35;20.85;;;13.25;;
55706;SDS011;41608;45.384;20.394;2022-09-09T03:34:03;21.23;;;12.68;;
55706;SDS011;41608;45.384;20.394;2022-09-09T03:36:29;14.30;;;12.32;;
55706;SDS011;41608;45.384;20.394;2022-09-09T03:38:55;22.75;;;13.43;;
55706;SDS011;41608;45.384;20.394;2022-09-09T03:41:21;20.30;;;12.60;;
55706;SDS011;41608;45.384;20.394;2022-09-09T03:43:49;17.83;;;12.63;;
55706;SDS011;41608;45.384;20.394;2022-09-09T03:46:15;19.80;;;12.55;;
55706;SDS011;41608;45.384;20.394;2022-09-09T03:48:41;17.60;;;12.50;;
55706;SDS011;41608;45.384;20.394;2022-09-09T03:51:07;17.45;;;10.90;;
55706;SDS011;41608;45.384;20.394;2022-09-09T03:53:36;15.57;;;10.73;;
55706;SDS011;41608;45.384;20.394;2022-09-09T03:56:03;13.93;;;10.05;;
55706;SDS011;41608;45.384;20.394;2022-09-09T03:58:32;17.38;;;11.13;;
55706;SDS011;41608;45.384;20.394;2022-09-09T04:01:02;11.77;;;9.82;;
55706;SDS011;41608;45.384;20.394;2022-09-09T04:03:29;13.40;;;10.80;;
55706;SDS011;41608;45.384;20.394;2022-09-09T04:05:56;16.67;;;9.73;;
55706;SDS011;41608;45.384;20.394;2022-09-09T04:08:23;16.63;;;10.23;;
55706;SDS011;41608;45.384;20.394;2022-09-09T04:10:52;17.75;;;9.38;;
55706;SDS011;41608;45.384;20.394;2022-09-09T04:13:18;11.27;;;9.35;;
55706;SDS011;41608;45.384;20.394;2022-09-09T04:15:51;13.02;;;9.30;;
55706;SDS011;41608;45.384;20.394;2022-09-09T04:18:18;12.38;;;9.45;;
55706;SDS011;41608;45.384;20.394;2022-09-09T04:20:46;15.65;;;8.18;;
55706;SDS011;41608;45.384;20.394;2022-09-09T04:23:15;13.00;;;8.77;;
55706;SDS011;41608;45.384;20.394;2022-09-09T04:25:45;12.60;;;8.30;;
55706;SDS011;41608;45.384;20.394;2022-09-09T04:28:12;12.73;;;8.15;;
55706;SDS011;41608;45.384;20.394;2022-09-09T04:30:38;12.23;;;8.20;;
55706;SDS011;41608;45.384;20.394;2022-09-09T04:33:05;16.67;;;8.98;;
55706;SDS011;41608;45.384;20.394;2022-09-09T04:35:31;10.70;;;8.00;;
55706;SDS011;41608;45.384;20.394;2022-09-09T04:37:58;12.98;;;8.05;;
55706;SDS011;41608;45.384;20.394;2022-09-09T04:40:24;10.10;;;7.70;;
55706;SDS011;41608;45.384;20.394;2022-09-09T04:42:50;12.00;;;8.18;;
55706;SDS011;41608;45.384;20.394;2022-09-09T04:45:17;13.55;;;8.90;;
55706;SDS011;41608;45.384;20.394;2022-09-09T04:47:43;15.02;;;8.45;;
55706;SDS011;41608;45.384;20.394;2022-09-09T04:50:09;13.68;;;8.60;;
55706;SDS011;41608;45.384;20.394;2022-09-09T04:52:36;14.25;;;9.88;;
55706;SDS011;41608;45.384;20.394;2022-09-09T04:55:03;13.65;;;9.43;;
55706;SDS011;41608;45.384;20.394;2022-09-09T04:57:29;12.05;;;9.60;;
55706;SDS011;41608;45.384;20.394;2022-09-09T04:59:57;17.50;;;11.27;;
55706;SDS011;41608;45.384;20.394;2022-09-09T05:02:23;22.00;;;11.93;;
55706;SDS011;41608;45.384;20.394;2022-09-09T05:04:49;16.05;;;11.23;;
55706;SDS011;41608;45.384;20.394;2022-09-09T05:07:15;16.27;;;11.45;;
55706;SDS011;41608;45.384;20.394;2022-09-09T05:09:41;12.48;;;10.02;;
55706;SDS011;41608;45.384;20.394;2022-09-09T05:12:07;14.80;;;10.20;;
55706;SDS011;41608;45.384;20.394;2022-09-09T05:14:33;12.23;;;9.65;;
55706;SDS011;41608;45.384;20.394;2022-09-09T05:17:02;15.68;;;10.40;;
55706;SDS011;41608;45.384;20.394;2022-09-09T05:19:28;16.05;;;9.60;;
55706;SDS011;41608;45.384;20.394;2022-09-09T05:21:56;19.75;;;9.90;;
55706;SDS011;41608;45.384;20.394;2022-09-09T05:24:22;13.95;;;9.90;;
55706;SDS011;41608;45.384;20.394;2022-09-09T05:26:48;15.40;;;10.35;;
55706;SDS011;41608;45.384;20.394;2022-09-09T05:29:14;16.90;;;9.63;;
55706;SDS011;41608;45.384;20.394;2022-09-09T05:31:44;18.88;;;9.23;;
55706;SDS011;41608;45.384;20.394;2022-09-09T05:34:10;12.98;;;8.77;;
55706;SDS011;41608;45.384;20.394;2022-09-09T05:36:36;11.48;;;8.25;;
55706;SDS011;41608;45.384;20.394;2022-09-09T05:39:02;14.32;;;8.90;;
55706;SDS011;41608;45.384;20.394;2022-09-09T05:41:28;14.35;;;9.20;;
55706;SDS011;41608;45.384;20.394;2022-09-09T05:43:56;14.35;;;9.73;;
55706;SDS011;41608;45.384;20.394;2022-09-09T05:46:23;19.02;;;9.82;;
55706;SDS011;41608;45.384;20.394;2022-09-09T05:48:50;17.75;;;10.38;;
55706;SDS011;41608;45.384;20.394;2022-09-09T05:51:21;12.63;;;9.77;;
55706;SDS011;41608;45.384;20.394;2022-09-09T05:53:47;14.10;;;9.13;;
55706;SDS011;41608;45.384;20.394;2022-09-09T05:56:17;16.95;;;9.32;;
55706;SDS011;41608;45.384;20.394;2022-09-09T05:58:44;13.20;;;8.32;;
55706;SDS011;41608;45.384;20.394;2022-09-09T06:01:33;18.25;;;10.65;;
55706;SDS011;41608;45.384;20.394;2022-09-09T06:03:58;11.95;;;9.23;;
55706;SDS011;41608;45.384;20.394;2022-09-09T06:06:30;13.57;;;8.63;;
55706;SDS011;41608;45.384;20.394;2022-09-09T06:08:56;16.65;;;8.80;;
55706;SDS011;41608;45.384;20.394;2022-09-09T06:11:24;15.68;;;8.90;;
55706;SDS011;41608;45.384;20.394;2022-09-09T06:13:51;12.45;;;8.63;;
55706;SDS011;41608;45.384;20.394;2022-09-09T06:16:20;15.05;;;9.30;;
55706;SDS011;41608;45.384;20.394;2022-09-09T06:18:48;15.75;;;8.43;;
55706;SDS011;41608;45.384;20.394;2022-09-09T06:21:19;15.23;;;8.30;;
55706;SDS011;41608;45.384;20.394;2022-09-09T06:23:46;13.43;;;8.48;;
55706;SDS011;41608;45.384;20.394;2022-09-09T06:28:47;16.05;;;7.55;;
55706;SDS011;41608;45.384;20.394;2022-09-09T06:31:15;15.80;;;9.30;;
55706;SDS011;41608;45.384;20.394;2022-09-09T06:33:48;13.07;;;8.68;;
55706;SDS011;41608;45.384;20.394;2022-09-09T06:36:19;15.98;;;7.90;;
55706;SDS011;41608;45.384;20.394;2022-09-09T06:38:46;14.70;;;8.70;;
55706;SDS011;41608;45.384;20.394;2022-09-09T06:41:13;12.10;;;7.68;;
55706;SDS011;41608;45.384;20.394;2022-09-09T06:43:39;14.57;;;8.50;;
55706;SDS011;41608;45.384;20.394;2022-09-09T06:46:06;11.70;;;7.80;;
55706;SDS011;41608;45.384;20.394;2022-09-09T06:48:33;17.90;;;9.65;;
55706;SDS011;41608;45.384;20.394;2022-09-09T06:51:06;15.45;;;8.13;;
55706;SDS011;41608;45.384;20.394;2022-09-09T06:53:34;17.80;;;8.10;;
55706;SDS011;41608;45.384;20.394;2022-09-09T06:56:23;15.23;;;9.48;;
55706;SDS011;41608;45.384;20.394;2022-09-09T06:58:48;15.23;;;9.13;;
55706;SDS011;41608;45.384;20.394;2022-09-09T07:01:15;14.52;;;9.75;;
55706;SDS011;41608;45.384;20.394;2022-09-09T07:03:44;13.38;;;8.23;;
55706;SDS011;41608;45.384;20.394;2022-09-09T07:06:18;17.27;;;9.23;;
55706;SDS011;41608;45.384;20.394;2022-09-09T07:08:54;14.57;;;9.55;;
55706;SDS011;41608;45.384;20.394;2022-09-09T07:11:21;15.93;;;8.55;;
55706;SDS011;41608;45.384;20.394;2022-09-09T07:13:47;11.00;;;8.38;;
55706;SDS011;41608;45.384;20.394;2022-09-09T07:16:15;13.75;;;8.98;;
55706;SDS011;41608;45.384;20.394;2022-09-09T07:18:42;15.07;;;8.73;;
55706;SDS011;41608;45.384;20.394;2022-09-09T07:21:13;15.35;;;9.02;;
55706;SDS011;41608;45.384;20.394;2022-09-09T07:23:41;10.82;;;8.60;;
55706;SDS011;41608;45.384;20.394;2022-09-09T07:26:16;17.65;;;9.13;;
55706;SDS011;41608;45.384;20.394;2022-09-09T07:28:44;13.80;;;8.82;;
55706;SDS011;41608;45.384;20.394;2022-09-09T07:31:14;12.38;;;8.30;;
55706;SDS011;41608;45.384;20.394;2022-09-09T07:33:41;13.52;;;8.98;;
55706;SDS011;41608;45.384;20.394;2022-09-09T07:38:40;13.63;;;8.13;;
55706;SDS011;41608;45.384;20.394;2022-09-09T07:41:09;8.93;;;7.37;;
55706;SDS011;41608;45.384;20.394;2022-09-09T07:43:40;11.18;;;7.93;;
55706;SDS011;41608;45.384;20.394;2022-09-09T07:46:06;10.32;;;7.70;;
55706;SDS011;41608;45.384;20.394;2022-09-09T07:48:32;12.35;;;7.43;;
55706;SDS011;41608;45.384;20.394;2022-09-09T07:51:09;13.68;;;7.60;;
55706;SDS011;41608;45.384;20.394;2022-09-09T07:53:36;13.13;;;7.65;;
55706;SDS011;41608;45.384;20.394;2022-09-09T07:56:07;9.30;;;7.50;;
55706;SDS011;41608;45.384;20.394;2022-09-09T07:58:34;9.05;;;7.05;;
55706;SDS011;41608;45.384;20.394;2022-09-09T08:01:05;12.20;;;7.53;;
55706;SDS011;41608;45.384;20.394;2022-09-09T08:03:33;12.60;;;8.15;;
55706;SDS011;41608;45.384;20.394;2022-09-09T08:06:00;8.95;;;7.10;;
55706;SDS011;41608;45.384;20.394;2022-09-09T08:08:27;11.00;;;7.22;;
55706;SDS011;41608;45.384;20.394;2022-09-09T08:10:53;12.98;;;7.47;;
55706;SDS011;41608;45.384;20.394;2022-09-09T08:13:19;14.05;;;7.88;;
55706;SDS011;41608;45.384;20.394;2022-09-09T08:15:45;9.82;;;6.97;;
55706;SDS011;41608;45.384;20.394;2022-09-09T08:18:11;9.55;;;7.72;;
55706;SDS011;41608;45.384;20.394;2022-09-09T08:20:37;11.68;;;7.75;;
55706;SDS011;41608;45.384;20.394;2022-09-09T08:23:03;11.05;;;7.05;;
55706;SDS011;41608;45.384;20.394;2022-09-09T08:25:29;11.07;;;7.65;;
55706;SDS011;41608;45.384;20.394;2022-09-09T08:28:05;13.07;;;7.97;;
55706;SDS011;41608;45.384;20.394;2022-09-09T08:30:31;12.43;;;7.30;;
55706;SDS011;41608;45.384;20.394;2022-09-09T08:32:57;12.55;;;8.15;;
55706;SDS011;41608;45.384;20.394;2022-09-09T08:35:24;9.95;;;8.05;;
55706;SDS011;41608;45.384;20.394;2022-09-09T08:37:53;9.80;;;7.45;;
55706;SDS011;41608;45.384;20.394;2022-09-09T08:40:22;11.10;;;7.20;;
55706;SDS011;41608;45.384;20.394;2022-09-09T08:42:50;9.85;;;7.57;;
55706;SDS011;41608;45.384;20.394;2022-09-09T08:48:06;9.10;;;6.45;;
55706;SDS011;41608;45.384;20.394;2022-09-09T08:50:37;13.20;;;7.03;;
55706;SDS011;41608;45.384;20.394;2022-09-09T08:53:27;11.18;;;6.85;;
55706;SDS011;41608;45.384;20.394;2022-09-09T08:55:57;9.73;;;6.82;;
55706;SDS011;41608;45.384;20.394;2022-09-09T08:58:27;9.35;;;6.57;;
55706;SDS011;41608;45.384;20.394;2022-09-09T09:11:10;12.68;;;6.97;;
55706;SDS011;41608;45.384;20.394;2022-09-09T09:18:51;10.52;;;6.38;;
55706;SDS011;41608;45.384;20.394;2022-09-09T09:24:02;14.15;;;8.18;;
55706;SDS011;41608;45.384;20.394;2022-09-09T09:26:35;8.68;;;5.40;;
55706;SDS011;41608;45.384;20.394;2022-09-09T09:29:03;10.38;;;5.97;;
55706;SDS011;41608;45.384;20.394;2022-09-09T09:31:34;12.65;;;5.85;;
55706;SDS011;41608;45.384;20.394;2022-09-09T09:34:02;10.32;;;5.43;;
55706;SDS011;41608;45.384;20.394;2022-09-09T09:36:37;18.38;;;6.05;;
55706;SDS011;41608;45.384;20.394;2022-09-09T09:39:04;8.05;;;5.45;;
55706;SDS011;41608;45.384;20.394;2022-09-09T09:43:57;9.68;;;6.22;;
55706;SDS011;41608;45.384;20.394;2022-09-09T09:46:23;9.10;;;5.60;;
55706;SDS011;41608;45.384;20.394;2022-09-09T09:49:03;11.10;;;5.78;;
55706;SDS011;41608;45.384;20.394;2022-09-09T09:51:30;9.98;;;6.55;;
55706;SDS011;41608;45.384;20.394;2022-09-09T09:54:07;11.07;;;6.60;;
55706;SDS011;41608;45.384;20.394;2022-09-09T09:56:34;9.00;;;6.82;;
55706;SDS011;41608;45.384;20.394;2022-09-09T09:59:01;11.48;;;6.55;;
55706;SDS011;41608;45.384;20.394;2022-09-09T10:01:28;13.40;;;6.72;;
55706;SDS011;41608;45.384;20.394;2022-09-09T10:04:02;12.63;;;7.10;;
55706;SDS011;41608;45.384;20.394;2022-09-09T10:06:32;10.25;;;8.10;;
55706;SDS011;41608;45.384;20.394;2022-09-09T10:09:01;10.68;;;6.97;;
55706;SDS011;41608;45.384;20.394;2022-09-09T10:21:23;11.00;;;6.53;;
55706;SDS011;41608;45.384;20.394;2022-09-09T10:34:16;10.70;;;7.10;;
55706;SDS011;41608;45.384;20.394;2022-09-09T10:36:48;9.45;;;6.57;;
55706;SDS011;41608;45.384;20.394;2022-09-09T10:39:35;8.60;;;7.15;;
55706;SDS011;41608;45.384;20.394;2022-09-09T10:44:56;9.65;;;7.38;;
55706;SDS011;41608;45.384;20.394;2022-09-09T10:47:31;11.10;;;6.75;;
55706;SDS011;41608;45.384;20.394;2022-09-09T10:52:50;9.20;;;6.30;;
55706;SDS011;41608;45.384;20.394;2022-09-09T10:55:25;13.07;;;7.60;;
55706;SDS011;41608;45.384;20.394;2022-09-09T10:57:57;12.27;;;6.95;;
55706;SDS011;41608;45.384;20.394;2022-09-09T11:00:24;9.52;;;6.35;;
55706;SDS011;41608;45.384;20.394;2022-09-09T11:02:55;9.70;;;6.15;;
55706;SDS011;41608;45.384;20.394;2022-09-09T11:05:25;9.20;;;7.03;;
55706;SDS011;41608;45.384;20.394;2022-09-09T11:07:56;10.10;;;6.57;;
55706;SDS011;41608;45.384;20.394;2022-09-09T11:12:59;12.38;;;7.13;;
55706;SDS011;41608;45.384;20.394;2022-09-09T11:15:35;9.80;;;7.07;;
55706;SDS011;41608;45.384;20.394;2022-09-09T11:18:04;9.27;;;7.43;;
55706;SDS011;41608;45.384;20.394;2022-09-09T11:20:31;12.65;;;7.28;;
55706;SDS011;41608;45.384;20.394;2022-09-09T11:25:28;12.15;;;6.88;;
55706;SDS011;41608;45.384;20.394;2022-09-09T11:40:47;7.85;;;6.20;;
55706;SDS011;41608;45.384;20.394;2022-09-09T11:43:25;12.27;;;6.95;;
55706;SDS011;41608;45.384;20.394;2022-09-09T11:45:53;8.80;;;6.43;;
55706;SDS011;41608;45.384;20.394;2022-09-09T11:48:46;9.00;;;6.35;;
55706;SDS011;41608;45.384;20.394;2022-09-09T11:53:53;7.50;;;6.07;;
55706;SDS011;41608;45.384;20.394;2022-09-09T11:59:23;10.48;;;6.70;;
55706;SDS011;41608;45.384;20.394;2022-09-09T12:01:59;10.38;;;6.78;;
55706;SDS011;41608;45.384;20.394;2022-09-09T12:07:02;11.00;;;6.80;;
55706;SDS011;41608;45.384;20.394;2022-09-09T12:14:38;14.70;;;6.72;;
55706;SDS011;41608;45.384;20.394;2022-09-09T12:17:09;8.85;;;5.47;;
55706;SDS011;41608;45.384;20.394;2022-09-09T12:19:35;12.25;;;6.90;;
55706;SDS011;41608;45.384;20.394;2022-09-09T12:24:48;7.50;;;6.68;;
55706;SDS011;41608;45.384;20.394;2022-09-09T12:27:18;14.30;;;7.03;;
55706;SDS011;41608;45.384;20.394;2022-09-09T12:29:49;12.63;;;7.18;;
55706;SDS011;41608;45.384;20.394;2022-09-09T12:32:22;15.15;;;6.47;;
55706;SDS011;41608;45.384;20.394;2022-09-09T12:34:52;12.07;;;6.90;;
55706;SDS011;41608;45.384;20.394;2022-09-09T12:37:32;9.95;;;7.05;;
55706;SDS011;41608;45.384;20.394;2022-09-09T12:40:01;7.63;;;5.80;;
55706;SDS011;41608;45.384;20.394;2022-09-09T12:42:28;12.90;;;7.65;;
55706;SDS011;41608;45.384;20.394;2022-09-09T12:44:58;9.90;;;6.97;;
55706;SDS011;41608;45.384;20.394;2022-09-09T12:47:46;10.40;;;6.55;;
55706;SDS011;41608;45.384;20.394;2022-09-09T12:52:43;8.93;;;6.30;;
55706;SDS011;41608;45.384;20.394;2022-09-09T12:55:20;9.00;;;6.00;;
55706;SDS011;41608;45.384;20.394;2022-09-09T12:57:50;8.27;;;6.05;;
55706;SDS011;41608;45.384;20.394;2022-09-09T13:00:20;10.23;;;6.20;;
55706;SDS011;41608;45.384;20.394;2022-09-09T13:05:21;9.07;;;5.55;;
55706;SDS011;41608;45.384;20.394;2022-09-09T13:07:50;8.07;;;5.57;;
55706;SDS011;41608;45.384;20.394;2022-09-09T13:10:26;9.77;;;6.35;;
55706;SDS011;41608;45.384;20.394;2022-09-09T13:12:53;16.92;;;7.72;;
55706;SDS011;41608;45.384;20.394;2022-09-09T13:15:21;9.45;;;5.85;;
55706;SDS011;41608;45.384;20.394;2022-09-09T13:17:51;14.02;;;7.07;;
55706;SDS011;41608;45.384;20.394;2022-09-09T13:20:19;8.93;;;6.18;;
55706;SDS011;41608;45.384;20.394;2022-09-09T13:22:46;12.55;;;7.60;;
55706;SDS011;41608;45.384;20.394;2022-09-09T13:27:40;9.13;;;6.90;;
55706;SDS011;41608;45.384;20.394;2022-09-09T13:30:19;12.98;;;6.82;;
55706;SDS011;41608;45.384;20.394;2022-09-09T13:32:47;10.13;;;6.80;;
55706;SDS011;41608;45.384;20.394;2022-09-09T13:35:23;12.15;;;5.90;;
55706;SDS011;41608;45.384;20.394;2022-09-09T13:37:50;12.10;;;7.18;;
55706;SDS011;41608;45.384;20.394;2022-09-09T13:40:19;14.10;;;6.75;;
55706;SDS011;41608;45.384;20.394;2022-09-09T13:42:46;10.93;;;6.35;;
55706;SDS011;41608;45.384;20.394;2022-09-09T13:45:20;13.65;;;7.15;;
55706;SDS011;41608;45.384;20.394;2022-09-09T13:47:51;15.77;;;8.32;;
55706;SDS011;41608;45.384;20.394;2022-09-09T13:52:47;13.13;;;8.35;;
55706;SDS011;41608;45.384;20.394;2022-09-09T13:55:14;10.43;;;6.20;;
55706;SDS011;41608;45.384;20.394;2022-09-09T13:57:49;10.68;;;6.60;;
55706;SDS011;41608;45.384;20.394;2022-09-09T14:00:15;10.75;;;6.82;;
55706;SDS011;41608;45.384;20.394;2022-09-09T14:02:41;9.15;;;7.38;;
55706;SDS011;41608;45.384;20.394;2022-09-09T14:05:09;11.98;;;7.65;;
55706;SDS011;41608;45.384;20.394;2022-09-09T14:07:36;8.75;;;6.70;;
55706;SDS011;41608;45.384;20.394;2022-09-09T14:10:03;15.45;;;6.28;;
55706;SDS011;41608;45.384;20.394;2022-09-09T14:12:29;10.98;;;6.50;;
55706;SDS011;41608;45.384;20.394;2022-09-09T14:14:55;10.02;;;6.38;;
55706;SDS011;41608;45.384;20.394;2022-09-09T14:17:21;10.25;;;5.90;;
55706;SDS011;41608;45.384;20.394;2022-09-09T14:19:47;16.05;;;7.20;;
55706;SDS011;41608;45.384;20.394;2022-09-09T14:22:14;15.38;;;9.05;;
55706;SDS011;41608;45.384;20.394;2022-09-09T14:24:40;9.85;;;6.43;;
55706;SDS011;41608;45.384;20.394;2022-09-09T14:27:06;19.30;;;11.80;;
55706;SDS011;41608;45.384;20.394;2022-09-09T14:29:32;10.75;;;6.53;;
55706;SDS011;41608;45.384;20.394;2022-09-09T14:31:58;11.38;;;6.43;;
55706;SDS011;41608;45.384;20.394;2022-09-09T14:34:26;15.60;;;7.47;;
55706;SDS011;41608;45.384;20.394;2022-09-09T14:36:55;12.40;;;7.53;;
55706;SDS011;41608;45.384;20.394;2022-09-09T14:39:23;10.50;;;6.82;;
55706;SDS011;41608;45.384;20.394;2022-09-09T14:41:49;11.18;;;6.05;;
55706;SDS011;41608;45.384;20.394;2022-09-09T14:44:15;20.35;;;7.47;;
55706;SDS011;41608;45.384;20.394;2022-09-09T14:46:42;10.70;;;6.20;;
55706;SDS011;41608;45.384;20.394;2022-09-09T14:49:08;14.25;;;6.63;;
55706;SDS011;41608;45.384;20.394;2022-09-09T14:51:35;17.10;;;7.60;;
55706;SDS011;41608;45.384;20.394;2022-09-09T14:54:01;12.07;;;5.47;;
55706;SDS011;41608;45.384;20.394;2022-09-09T14:56:29;13.15;;;6.93;;
55706;SDS011;41608;45.384;20.394;2022-09-09T14:58:56;14.35;;;7.40;;
55706;SDS011;41608;45.384;20.394;2022-09-09T15:01:22;8.43;;;6.60;;
55706;SDS011;41608;45.384;20.394;2022-09-09T15:03:49;13.20;;;7.80;;
55706;SDS011;41608;45.384;20.394;2022-09-09T15:06:21;14.32;;;8.48;;
55706;SDS011;41608;45.384;20.394;2022-09-09T15:08:49;12.80;;;7.57;;
55706;SDS011;41608;45.384;20.394;2022-09-09T15:11:15;12.75;;;6.88;;
55706;SDS011;41608;45.384;20.394;2022-09-09T15:13:42;12.60;;;7.47;;
55706;SDS011;41608;45.384;20.394;2022-09-09T15:18:35;11.18;;;7.38;;
55706;SDS011;41608;45.384;20.394;2022-09-09T15:21:02;16.58;;;7.43;;
55706;SDS011;41608;45.384;20.394;2022-09-09T15:23:31;15.15;;;6.13;;
55706;SDS011;41608;45.384;20.394;2022-09-09T15:25:57;14.40;;;7.78;;
55706;SDS011;41608;45.384;20.394;2022-09-09T15:28:23;11.00;;;6.97;;
55706;SDS011;41608;45.384;20.394;2022-09-09T15:30:50;14.60;;;7.18;;
55706;SDS011;41608;45.384;20.394;2022-09-09T15:33:17;14.75;;;7.95;;
55706;SDS011;41608;45.384;20.394;2022-09-09T15:35:43;10.63;;;6.10;;
55706;SDS011;41608;45.384;20.394;2022-09-09T15:38:09;17.13;;;7.40;;
55706;SDS011;41608;45.384;20.394;2022-09-09T15:40:38;10.63;;;6.93;;
55706;SDS011;41608;45.384;20.394;2022-09-09T15:43:04;11.65;;;8.27;;
55706;SDS011;41608;45.384;20.394;2022-09-09T15:45:31;14.77;;;7.68;;
55706;SDS011;41608;45.384;20.394;2022-09-09T15:48:00;13.27;;;6.85;;
55706;SDS011;41608;45.384;20.394;2022-09-09T15:50:26;16.55;;;8.07;;
55706;SDS011;41608;45.384;20.394;2022-09-09T15:52:52;12.15;;;6.88;;
55706;SDS011;41608;45.384;20.394;2022-09-09T15:55:21;11.13;;;7.05;;
55706;SDS011;41608;45.384;20.394;2022-09-09T15:57:49;11.95;;;6.60;;
55706;SDS011;41608;45.384;20.394;2022-09-09T16:00:17;20.75;;;8.82;;
55706;SDS011;41608;45.384;20.394;2022-09-09T16:02:43;18.42;;;7.32;;
55706;SDS011;41608;45.384;20.394;2022-09-09T16:05:09;11.65;;;6.65;;
55706;SDS011;41608;45.384;20.394;2022-09-09T16:07:35;14.15;;;7.13;;
55706;SDS011;41608;45.384;20.394;2022-09-09T16:10:04;14.63;;;7.82;;
55706;SDS011;41608;45.384;20.394;2022-09-09T16:12:32;12.10;;;6.70;;
55706;SDS011;41608;45.384;20.394;2022-09-09T16:14:58;15.90;;;6.45;;
55706;SDS011;41608;45.384;20.394;2022-09-09T16:17:24;17.48;;;6.88;;
55706;SDS011;41608;45.384;20.394;2022-09-09T16:19:52;15.63;;;7.60;;
55706;SDS011;41608;45.384;20.394;2022-09-09T16:22:19;15.82;;;7.15;;
55706;SDS011;41608;45.384;20.394;2022-09-09T16:24:45;16.27;;;8.77;;
55706;SDS011;41608;45.384;20.394;2022-09-09T16:27:11;14.35;;;8.35;;
55706;SDS011;41608;45.384;20.394;2022-09-09T16:29:37;19.35;;;7.63;;
55706;SDS011;41608;45.384;20.394;2022-09-09T16:32:03;16.58;;;7.35;;
55706;SDS011;41608;45.384;20.394;2022-09-09T16:34:30;12.85;;;6.93;;
55706;SDS011;41608;45.384;20.394;2022-09-09T16:36:56;13.75;;;7.70;;
55706;SDS011;41608;45.384;20.394;2022-09-09T16:39:22;14.23;;;6.93;;
55706;SDS011;41608;45.384;20.394;2022-09-09T16:41:48;15.35;;;7.63;;
55706;SDS011;41608;45.384;20.394;2022-09-09T16:44:17;13.73;;;8.05;;
55706;SDS011;41608;45.384;20.394;2022-09-09T16:46:44;15.32;;;7.50;;
55706;SDS011;41608;45.384;20.394;2022-09-09T16:49:12;13.23;;;7.85;;
55706;SDS011;41608;45.384;20.394;2022-09-09T16:51:39;19.30;;;7.28;;
55706;SDS011;41608;45.384;20.394;2022-09-09T16:54:06;15.68;;;8.32;;
55706;SDS011;41608;45.384;20.394;2022-09-09T16:56:33;28.73;;;11.13;;